Time;durP1;ratioP1;P1;durP2;ratioP2;P2;SDS_P1;SDS_P2;PMS_P1;PMS_P2;Temp;Humidity;BMP_temperature;BMP_pressure;BME280_temperature;BME280_humidity;BME280_pressure;Samples;Min_cycle;Max_cycle;Signal;HPM_P1;HPM_P2
2021/06/08 04:37:16;;;;;;;15.90;9.80;;;;;;;16.19;61.70;100340.34;5180112;27;20348;-76
2021/06/08 04:39:42;;;;;;;13.07;8.93;;;;;;;16.34;61.20;100340.16;5170758;27;20038;-74
2021/06/08 04:42:08;;;;;;;13.65;8.10;;;;;;;16.50;61.16;100336.25;5173713;27;20463;-74
2021/06/08 04:44:34;;;;;;;14.15;8.02;;;;;;;16.66;61.13;100337.72;5173128;27;20121;-70
2021/06/08 04:46:59;;;;;;;13.93;8.10;;;;;;;16.81;60.72;100344.75;5172914;27;40450;-69
2021/06/08 04:49:24;;;;;;;13.68;7.88;;;;;;;16.98;60.47;100345.19;5174065;27;20035;-69
2021/06/08 04:51:50;;;;;;;13.68;8.35;;;;;;;17.10;60.03;100346.22;5173328;27;36724;-69
2021/06/08 04:54:21;;;;;;;14.20;8.88;;;;;;;17.16;59.66;100348.03;5173372;27;20054;-69
2021/06/08 04:56:47;;;;;;;12.00;7.80;;;;;;;17.18;59.67;100348.69;5173853;27;20473;-63
2021/06/08 04:59:14;;;;;;;11.88;8.10;;;;;;;17.25;59.33;100354.06;5172351;27;25181;-68
2021/06/08 05:01:40;;;;;;;13.68;8.52;;;;;;;17.33;59.34;100355.66;5155692;27;20053;-69
2021/06/08 05:04:10;;;;;;;16.08;8.45;;;;;;;17.43;59.25;100354.19;5155406;27;20053;-64
2021/06/08 05:06:41;;;;;;;11.40;8.05;;;;;;;17.53;59.29;100351.06;5155611;27;20096;-71
2021/06/08 05:09:14;;;;;;;10.90;8.00;;;;;;;17.65;58.87;100363.88;5172456;27;20034;-76
2021/06/08 05:11:54;;;;;;;12.30;8.07;;;;;;;17.70;58.35;100356.81;5157246;27;20027;-78
2021/06/08 05:14:20;;;;;;;11.88;8.13;;;;;;;17.75;58.22;100372.31;5152497;27;20028;-83
2021/06/08 05:16:45;;;;;;;13.55;8.07;;;;;;;17.79;58.03;100365.47;5135726;27;20027;-84
2021/06/08 05:19:11;;;;;;;12.25;7.90;;;;;;;17.85;57.49;100366.47;5152992;27;20047;-77
2021/06/08 05:21:37;;;;;;;10.13;7.72;;;;;;;17.83;57.25;100369.38;5146437;27;20026;-81
2021/06/08 05:24:03;;;;;;;10.38;7.95;;;;;;;17.84;56.92;100368.34;5171966;27;20136;-80
2021/06/08 05:26:29;;;;;;;10.75;7.53;;;;;;;17.90;56.89;100362.09;5173383;27;20035;-75
2021/06/08 05:28:54;;;;;;;13.40;10.15;;;;;;;17.99;56.90;100361.88;5154060;27;32267;-74
2021/06/08 05:31:20;;;;;;;14.68;8.23;;;;;;;18.07;56.96;100369.72;5172206;27;20073;-74
2021/06/08 05:33:46;;;;;;;13.63;7.75;;;;;;;18.19;57.04;100370.72;5173195;27;20031;-74
2021/06/08 05:36:11;;;;;;;11.98;7.40;;;;;;;18.31;56.62;100368.13;5173052;27;20047;-77
2021/06/08 05:38:38;;;;;;;9.00;7.15;;;;;;;18.41;56.11;100373.91;5172984;27;24793;-74
2021/06/08 05:41:07;;;;;;;11.25;8.07;;;;;;;18.50;56.08;100365.53;5171655;27;20042;-73
2021/06/08 05:43:32;;;;;;;11.50;6.82;;;;;;;18.57;55.54;100369.81;5173618;27;20031;-73
2021/06/08 05:45:58;;;;;;;10.73;7.28;;;;;;;18.66;55.75;100370.41;5172559;27;36142;-70
2021/06/08 05:48:23;;;;;;;12.60;7.55;;;;;;;18.78;55.52;100378.59;5157640;27;20058;-72
2021/06/08 05:50:49;;;;;;;13.07;7.70;;;;;;;18.93;55.84;100383.69;5157794;27;20027;-84
2021/06/08 05:53:15;;;;;;;11.15;7.00;;;;;;;19.14;55.83;100374.38;5144698;27;20547;-80
2021/06/08 05:55:40;;;;;;;10.70;7.57;;;;;;;19.34;55.51;100385.00;5155265;27;20423;-74
2021/06/08 05:58:08;;;;;;;16.50;6.95;;;;;;;19.49;55.12;100383.78;5146676;27;21395;-78
2021/06/08 06:00:33;;;;;;;9.60;7.80;;;;;;;19.67;54.98;100381.09;5138154;27;20020;-75
2021/06/08 06:02:58;;;;;;;10.48;7.43;;;;;;;19.89;55.01;100388.78;5136508;27;20031;-76
2021/06/08 06:05:24;;;;;;;12.98;8.02;;;;;;;20.11;54.85;100379.09;5136347;27;28007;-75
2021/06/08 06:07:50;;;;;;;10.70;7.22;;;;;;;20.32;54.36;100378.84;5119847;27;20031;-74
2021/06/08 06:10:17;;;;;;;9.73;7.30;;;;;;;20.53;54.39;100381.03;5138192;27;20030;-76
2021/06/08 06:12:42;;;;;;;11.77;7.25;;;;;;;20.71;53.10;100382.00;5158810;27;20072;-75
2021/06/08 06:15:08;;;;;;;13.52;7.55;;;;;;;20.79;53.02;100377.09;5139203;27;37342;-73
2021/06/08 06:17:38;;;;;;;12.07;7.30;;;;;;;20.92;52.86;100381.44;5158433;27;20753;-76
2021/06/08 06:20:06;;;;;;;11.70;7.25;;;;;;;21.02;52.48;100385.47;5158844;27;20038;-78
2021/06/08 06:22:34;;;;;;;11.00;6.55;;;;;;;21.14;52.30;100389.00;5157250;27;20032;-80
2021/06/08 06:24:59;;;;;;;11.32;6.97;;;;;;;21.26;51.87;100381.69;5156756;27;20035;-75
2021/06/08 06:27:24;;;;;;;11.70;7.10;;;;;;;21.36;51.39;100385.69;5156238;27;38703;-74
2021/06/08 06:29:50;;;;;;;11.57;7.20;;;;;;;21.47;51.36;100387.56;5141468;27;20039;-74
2021/06/08 06:32:15;;;;;;;9.00;6.70;;;;;;;21.62;51.39;100384.38;5117432;27;38308;-71
2021/06/08 06:34:42;;;;;;;11.63;7.55;;;;;;;21.75;50.75;100384.13;5131862;27;32767;-77
2021/06/08 06:37:07;;;;;;;10.18;7.53;;;;;;;21.90;50.30;100383.63;5117521;27;20063;-75
2021/06/08 06:39:33;;;;;;;14.25;7.85;;;;;;;22.02;50.36;100386.28;5137543;27;20034;-76
2021/06/08 06:42:01;;;;;;;19.52;7.45;;;;;;;22.15;49.08;100387.88;5136575;27;20452;-80
2021/06/08 06:44:26;;;;;;;8.63;6.82;;;;;;;22.25;49.19;100392.66;5136793;27;20023;-76
2021/06/08 06:46:52;;;;;;;12.60;7.45;;;;;;;22.36;48.83;100393.72;5136768;27;20027;-75
2021/06/08 06:49:18;;;;;;;10.43;7.30;;;;;;;22.44;49.01;100396.03;5137474;27;20066;-78
2021/06/08 06:51:46;;;;;;;12.88;7.30;;;;;;;22.57;48.90;100393.00;5136322;27;20034;-72
2021/06/08 06:54:12;;;;;;;9.63;7.35;;;;;;;22.73;48.66;100387.84;5136500;27;20030;-78
2021/06/08 06:56:38;;;;;;;14.13;6.97;;;;;;;22.84;48.11;100386.09;5137334;27;20028;-71
2021/06/08 06:59:04;;;;;;;10.02;7.18;;;;;;;22.96;47.81;100392.28;5135781;27;20124;-79
2021/06/08 07:01:30;;;;;;;10.70;7.25;;;;;;;23.04;47.43;100385.63;5137580;27;20034;-72
2021/06/08 07:03:57;;;;;;;9.20;7.00;;;;;;;23.12;47.42;100390.63;5118529;27;20027;-73
2021/06/08 07:06:22;;;;;;;10.20;6.93;;;;;;;23.18;46.45;100395.06;5136102;27;20035;-71
2021/06/08 07:08:52;;;;;;;9.05;7.65;;;;;;;23.30;46.91;100390.38;5135775;27;20020;-72
2021/06/08 07:11:17;;;;;;;12.15;7.95;;;;;;;23.43;46.65;100391.09;5137191;27;20027;-75
2021/06/08 07:13:43;;;;;;;9.93;7.18;;;;;;;23.59;46.71;100392.94;5136085;27;20027;-71
2021/06/08 07:16:09;;;;;;;7.90;6.95;;;;;;;23.74;46.08;100396.94;5115208;27;20027;-70
2021/06/08 07:18:34;;;;;;;10.95;7.32;;;;;;;23.79;46.11;100399.72;5133448;27;38591;-72
2021/06/08 07:21:04;;;;;;;11.68;7.45;;;;;;;23.96;45.93;100400.50;5134136;27;20460;-69
2021/06/08 07:23:30;;;;;;;15.77;7.22;;;;;;;24.21;46.20;100401.84;5134329;27;20034;-73
2021/06/08 07:25:55;;;;;;;13.40;7.75;;;;;;;24.43;46.00;100401.00;5135702;27;20035;-72
2021/06/08 07:28:21;;;;;;;13.13;7.40;;;;;;;24.64;45.86;100402.81;5133507;27;20032;-73
2021/06/08 07:30:46;;;;;;;10.10;6.68;;;;;;;24.89;45.62;100401.44;5116678;27;20027;-75
2021/06/08 07:33:23;;;;;;;12.13;7.05;;;;;;;25.14;45.34;100403.50;5133376;27;33668;-72
2021/06/08 07:36:01;;;;;;;12.52;6.75;;;;;;;25.42;45.06;100404.22;5133916;27;20036;-73
2021/06/08 07:38:41;;;;;;;11.30;6.97;;;;;;;25.54;43.65;100395.03;5134820;27;20032;-71
2021/06/08 07:41:11;;;;;;;;;;;;;;;25.63;43.96;100393.41;5113091;28;20028;-72
2021/06/08 07:43:38;;;;;;;18.33;7.20;;;;;;;25.85;43.44;100394.06;5112991;28;19923;-73
2021/06/08 07:46:11;;;;;;;10.68;6.85;;;;;;;26.00;43.39;100398.75;5112991;28;20488;-72
2021/06/08 07:48:36;;;;;;;8.48;6.30;;;;;;;26.14;42.70;100398.28;5113027;28;20472;-72
2021/06/08 07:51:02;;;;;;;13.40;6.55;;;;;;;26.33;42.37;100404.06;5095460;28;20032;-71
2021/06/08 07:53:30;;;;;;;8.90;6.28;;;;;;;26.51;42.58;100397.25;5113081;28;20028;-74
2021/06/08 07:55:55;;;;;;;9.48;6.45;;;;;;;26.73;42.03;100401.66;5131029;27;20115;-72
2021/06/08 07:58:25;;;;;;;7.28;6.00;;;;;;;27.02;42.40;100396.44;5133292;27;20487;-71
2021/06/08 08:00:51;;;;;;;9.07;6.35;;;;;;;27.30;41.28;100400.50;5133823;27;20051;-73
2021/06/08 08:03:26;;;;;;;7.63;5.88;;;;;;;27.49;41.29;100406.22;5120367;27;20032;-70
2021/06/08 08:05:59;;;;;;;8.55;6.50;;;;;;;27.72;40.46;100406.69;5112763;28;20467;-73
2021/06/08 08:08:25;;;;;;;8.43;6.03;;;;;;;27.96;40.53;100400.56;5114121;28;20463;-74
2021/06/08 08:10:50;;;;;;;10.68;6.28;;;;;;;28.26;40.49;100402.31;5098866;27;20093;-70
2021/06/08 08:13:21;;;;;;;11.10;6.70;;;;;;;28.47;39.55;100413.16;5113561;27;20054;-71
2021/06/08 08:15:46;;;;;;;9.55;6.43;;;;;;;28.67;39.25;100412.22;5113573;27;20038;-70
2021/06/08 08:18:11;;;;;;;13.25;6.68;;;;;;;28.87;38.91;100413.97;5116200;27;40198;-72
2021/06/08 08:20:46;;;;;;;8.88;7.13;;;;;;;28.91;37.04;100416.94;5121805;27;35558;-72
2021/06/08 08:23:12;;;;;;;9.70;6.47;;;;;;;28.81;37.32;100410.44;5131448;27;20032;-74
2021/06/08 08:25:37;;;;;;;7.95;6.30;;;;;;;28.93;37.73;100415.53;5117100;27;20031;-72
2021/06/08 08:28:04;;;;;;;9.80;6.00;;;;;;;29.13;37.49;100421.94;5134379;27;26272;-70
2021/06/08 08:30:29;;;;;;;8.63;5.75;;;;;;;29.41;37.18;100414.00;5134709;27;20034;-71
2021/06/08 08:32:54;;;;;;;12.80;6.55;;;;;;;29.65;37.32;100422.22;5135454;27;29256;-71
2021/06/08 08:35:20;;;;;;;10.23;6.18;;;;;;;29.95;36.62;100410.09;5134680;27;20048;-76
2021/06/08 08:37:46;;;;;;;9.20;5.53;;;;;;;30.21;36.10;100417.97;5136176;27;20411;-68
2021/06/08 08:40:11;;;;;;;7.43;5.78;;;;;;;30.34;36.09;100413.66;5136036;27;20024;-77
2021/06/08 08:42:36;;;;;;;10.90;6.43;;;;;;;30.63;35.75;100419.00;5135044;27;20059;-72
2021/06/08 08:45:02;;;;;;;9.48;6.15;;;;;;;30.80;35.27;100418.44;5115955;27;37389;-71
2021/06/08 08:47:28;;;;;;;9.70;6.43;;;;;;;30.91;34.79;100410.84;5135856;27;20074;-73
2021/06/08 08:49:54;;;;;;;10.07;6.53;;;;;;;31.11;34.54;100415.19;5117249;27;20465;-69
2021/06/08 08:52:20;;;;;;;9.43;6.80;;;;;;;31.23;34.15;100409.19;5134158;27;39696;-66
2021/06/08 08:54:46;;;;;;;8.40;6.80;;;;;;;31.33;33.68;100408.16;5135218;27;20153;-72
2021/06/08 08:57:11;;;;;;;11.18;6.70;;;;;;;31.50;33.84;100402.88;5116865;27;20024;-67
2021/06/08 08:59:36;;;;;;;8.65;6.53;;;;;;;31.66;33.27;100403.41;5115886;27;39406;-67
2021/06/08 09:02:02;;;;;;;8.15;7.07;;;;;;;31.80;33.14;100406.16;5133669;27;30165;-73
2021/06/08 09:04:28;;;;;;;8.40;6.10;;;;;;;31.96;33.20;100412.16;5134317;27;20027;-72
2021/06/08 09:06:54;;;;;;;9.32;5.28;;;;;;;32.15;32.57;100406.53;5134262;27;20063;-66
2021/06/08 09:09:19;;;;;;;9.63;5.18;;;;;;;32.27;31.87;100403.19;5133849;27;20048;-66
2021/06/08 09:11:45;;;;;;;6.40;4.60;;;;;;;32.34;31.40;100400.84;5116490;27;20383;-78
2021/06/08 09:14:11;;;;;;;7.50;3.78;;;;;;;32.45;30.99;100406.94;5134240;27;20027;-69
2021/06/08 09:16:37;;;;;;;6.50;4.50;;;;;;;32.60;31.04;100411.22;5135171;27;20110;-73
2021/06/08 09:19:07;;;;;;;6.05;4.18;;;;;;;32.70;30.83;100410.22;5116588;27;20024;-71
2021/06/08 09:21:33;;;;;;;5.97;4.10;;;;;;;32.67;29.26;100408.88;5135373;27;20028;-67
2021/06/08 09:24:18;;;;;;;6.70;4.50;;;;;;;32.63;29.85;100416.13;5138740;27;20035;-70
2021/06/08 09:26:58;;;;;;;13.50;5.55;;;;;;;32.70;29.63;100411.03;5124572;27;20059;-67
2021/06/08 09:29:43;;;;;;;11.98;5.13;;;;;;;32.86;29.48;100410.63;5128261;27;20032;-68
2021/06/08 09:32:21;;;;;;;9.13;4.60;;;;;;;32.98;29.45;100408.09;5127049;27;20032;-66
2021/06/08 09:34:52;;;;;;;10.90;5.18;;;;;;;33.22;28.76;100398.66;5127739;27;20059;-67
2021/06/08 09:37:33;;;;;;;6.40;4.85;;;;;;;33.13;28.67;100409.63;5127484;27;20838;-70
2021/06/08 09:39:59;;;;;;;7.15;4.57;;;;;;;33.36;28.74;100409.59;5127226;27;20059;-66
2021/06/08 09:42:28;;;;;;;7.05;4.53;;;;;;;33.53;28.42;100408.84;5118647;27;20039;-65
2021/06/08 09:44:53;;;;;;;5.90;4.30;;;;;;;33.65;28.01;100408.22;5116660;28;20747;-69
2021/06/08 09:47:29;;;;;;;7.13;4.72;;;;;;;33.80;27.71;100404.22;5117314;28;20031;-66
2021/06/08 09:49:54;;;;;;;7.30;4.25;;;;;;;33.95;27.51;100412.06;5117563;27;20039;-65
2021/06/08 09:52:20;;;;;;;6.35;4.43;;;;;;;34.11;27.41;100397.78;5117557;28;20067;-65
2021/06/08 09:54:49;;;;;;;5.30;3.85;;;;;;;34.18;27.21;100393.38;5124841;27;20030;-80
2021/06/08 09:57:14;;;;;;;4.68;4.00;;;;;;;34.26;26.57;100402.81;5136342;27;20789;-65
2021/06/08 09:59:40;;;;;;;6.07;4.10;;;;;;;34.26;25.96;100400.03;5138054;27;20116;-65
2021/06/08 10:02:28;;;;;;;11.30;3.95;;;;;;;34.11;24.96;100397.78;5138174;27;20514;-70
2021/06/08 10:05:11;;;;;;;6.57;3.92;;;;;;;33.96;26.01;100402.63;5138391;27;20141;-67
2021/06/08 10:07:36;;;;;;;9.07;4.25;;;;;;;34.14;26.08;100392.41;5136651;27;27359;-69
2021/06/08 10:10:07;;;;;;;6.78;3.58;;;;;;;34.19;25.45;100394.19;5135605;27;32907;-68
2021/06/08 10:12:33;;;;;;;4.85;3.00;;;;;;;34.11;25.07;100392.25;5134341;27;20031;-66
2021/06/08 10:15:08;;;;;;;8.15;3.55;;;;;;;34.04;24.84;100401.03;5133803;27;20783;-69
2021/06/08 10:17:34;;;;;;;4.53;3.30;;;;;;;33.95;24.74;100389.94;5135583;27;20035;-68
2021/06/08 10:20:22;;;;;;;10.20;3.40;;;;;;;33.79;24.65;100386.84;5134403;27;20023;-68
2021/06/08 10:22:47;;;;;;;7.35;3.10;;;;;;;33.79;24.29;100386.84;5135726;27;20115;-68
2021/06/08 10:25:13;;;;;;;7.38;3.15;;;;;;;33.90;24.36;100392.84;5137566;27;20028;-70
2021/06/08 10:27:38;;;;;;;6.05;2.80;;;;;;;33.92;23.76;100390.59;5138112;27;20031;-70
2021/06/08 10:30:05;;;;;;;6.30;2.95;;;;;;;33.91;24.21;100388.97;5137530;27;20050;-73
2021/06/08 10:32:30;;;;;;;5.78;2.92;;;;;;;33.92;23.75;100390.59;5136322;27;20748;-72
2021/06/08 10:34:56;;;;;;;5.95;2.75;;;;;;;34.04;23.72;100387.22;5136135;27;20046;-72
2021/06/08 10:37:21;;;;;;;6.45;2.70;;;;;;;34.20;24.09;100382.81;5136412;27;20027;-73
2021/06/08 10:39:48;;;;;;;5.50;2.60;;;;;;;34.25;23.01;100379.06;5136612;27;20036;-77
2021/06/08 10:42:15;;;;;;;5.90;3.17;;;;;;;33.98;22.78;100389.31;5119947;27;20031;-79
2021/06/08 10:44:41;;;;;;;5.15;3.03;;;;;;;33.96;23.34;100380.53;5119726;27;20073;-73
2021/06/08 10:47:21;;;;;;;6.05;2.80;;;;;;;34.10;22.77;100391.41;5136347;27;20036;-71
2021/06/08 10:49:47;;;;;;;7.45;2.83;;;;;;;34.14;23.03;100380.53;5120948;27;20102;-69
2021/06/08 10:52:14;;;;;;;10.18;2.95;;;;;;;34.05;22.42;100386.03;5137221;27;20024;-73
2021/06/08 10:54:50;;;;;;;5.72;2.40;;;;;;;33.93;22.12;100381.19;5136178;27;20067;-74
2021/06/08 10:57:17;;;;;;;5.22;2.70;;;;;;;33.86;22.19;100384.41;5136886;27;20456;-74
2021/06/08 10:59:52;;;;;;;7.90;3.10;;;;;;;33.92;22.02;100379.53;5133574;27;20034;-71
2021/06/08 11:02:45;;;;;;;5.60;2.35;;;;;;;33.83;21.75;100374.03;5132739;27;20019;-71
2021/06/08 11:05:10;;;;;;;4.82;2.30;;;;;;;33.72;22.07;100376.25;5116706;28;20108;-70
2021/06/08 11:07:49;;;;;;;7.10;2.47;;;;;;;33.69;21.61;100376.88;5116677;28;20035;-75
2021/06/08 11:10:27;;;;;;;11.35;3.30;;;;;;;33.81;22.21;100379.03;5116366;27;20062;-73
2021/06/08 11:13:19;;;;;;;6.63;2.42;;;;;;;33.93;21.86;100370.13;5132531;27;20125;-70
2021/06/08 11:15:48;;;;;;;8.00;2.63;;;;;;;33.68;21.45;100372.50;5134961;27;20046;-73
2021/06/08 11:18:19;;;;;;;6.68;2.42;;;;;;;33.59;21.05;100377.19;5135490;27;20030;-75
2021/06/08 11:20:48;;;;;;;4.40;2.60;;;;;;;33.55;20.98;100376.22;5136817;27;20035;-71
2021/06/08 11:23:42;;;;;;;5.60;2.57;;;;;;;33.33;20.87;100363.31;5136441;27;20055;-71
2021/06/08 11:26:11;;;;;;;8.55;2.55;;;;;;;33.24;20.64;100363.28;5136566;27;20238;-71
2021/06/08 11:28:41;;;;;;;5.15;2.78;;;;;;;33.11;20.90;100356.72;5136434;27;20151;-74
2021/06/08 11:31:06;;;;;;;4.88;2.58;;;;;;;33.12;21.19;100363.88;5135444;27;20088;-76
2021/06/08 11:33:39;;;;;;;7.88;2.30;;;;;;;33.29;21.08;100362.34;5135469;27;20438;-79
2021/06/08 11:36:21;;;;;;;2.95;2.20;;;;;;;33.47;20.94;100364.00;5136839;27;20062;-75
2021/06/08 11:38:50;;;;;;;6.57;2.65;;;;;;;33.56;20.42;100353.00;5138047;27;20019;-79
2021/06/08 11:41:17;;;;;;;4.93;2.58;;;;;;;33.38;20.62;100361.22;5137984;27;20075;-79
2021/06/08 11:43:44;;;;;;;6.85;2.60;;;;;;;33.37;20.75;100364.31;5137379;27;20032;-78
2021/06/08 11:46:12;;;;;;;3.50;2.40;;;;;;;33.21;19.95;100367.44;5138084;27;20122;-80
2021/06/08 11:49:02;;;;;;;3.90;2.10;;;;;;;33.18;20.16;100359.81;5118680;27;20028;-80
2021/06/08 11:51:35;;;;;;;4.53;2.67;;;;;;;32.97;20.38;100359.59;5135584;27;20023;-80
2021/06/08 11:54:03;;;;;;;6.38;2.38;;;;;;;33.02;20.55;100353.91;5136162;27;20513;-79
2021/06/08 11:56:45;;;;;;;5.93;2.85;;;;;;;33.00;19.99;100356.19;5137056;27;20475;-76
2021/06/08 11:59:10;;;;;;;4.35;2.30;;;;;;;32.95;20.39;100363.78;5136182;27;20038;-71
2021/06/08 12:01:38;;;;;;;5.70;2.80;;;;;;;32.90;20.10;100350.94;5135823;27;33855;-75
2021/06/08 12:04:03;;;;;;;5.40;2.47;;;;;;;32.72;20.09;100352.78;5136541;27;20628;-79
2021/06/08 12:07:02;;;;;;;4.07;2.20;;;;;;;32.65;20.07;100350.44;5134653;27;29470;-74
2021/06/08 12:09:28;;;;;;;;;;;;;;;32.63;20.07;100338.94;5132114;27;20039;-75
2021/06/08 12:11:54;;;;;;;3.75;2.45;;;;;;;32.60;20.27;100345.06;5131501;27;19920;-72
2021/06/08 12:14:20;;;;;;;6.50;3.08;;;;;;;32.54;20.13;100346.31;5114046;28;20059;-72
2021/06/08 12:16:50;;;;;;;9.35;2.67;;;;;;;32.46;20.44;100338.81;5115859;28;20507;-72
2021/06/08 12:19:15;;;;;;;7.38;2.90;;;;;;;32.26;20.07;100346.47;5115896;27;20583;-67
2021/06/08 12:21:44;;;;;;;3.58;2.83;;;;;;;32.16;20.68;100339.25;5115123;27;40777;-69
2021/06/08 12:24:15;;;;;;;6.82;2.67;;;;;;;32.13;20.99;100322.50;5114963;27;20108;-67
2021/06/08 12:26:52;;;;;;;4.55;2.78;;;;;;;31.87;20.84;100331.38;5115228;28;20035;-68
2021/06/08 12:29:18;;;;;;;2.92;2.40;;;;;;;31.70;21.27;100335.59;5113418;28;20070;-69
2021/06/08 12:32:10;;;;;;;5.90;2.80;;;;;;;31.77;21.47;100337.09;5112623;28;38453;-72
2021/06/08 12:34:37;;;;;;;4.97;2.88;;;;;;;31.65;21.11;100327.44;5114611;28;20104;-68
2021/06/08 12:37:03;;;;;;;4.30;2.83;;;;;;;31.59;21.48;100330.56;5115136;28;20035;-71
2021/06/08 12:39:30;;;;;;;9.73;3.40;;;;;;;31.38;21.45;100314.50;5115227;28;20059;-68
2021/06/08 12:42:16;;;;;;;3.63;2.70;;;;;;;31.10;21.45;100325.53;5131382;27;20749;-70
2021/06/08 12:44:42;;;;;;;6.10;2.90;;;;;;;30.93;21.87;100326.06;5135273;27;20030;-70
2021/06/08 12:47:07;;;;;;;7.22;2.95;;;;;;;31.01;22.56;100327.31;5133938;27;20032;-71
2021/06/08 12:49:34;;;;;;;9.10;3.05;;;;;;;31.17;22.50;100325.13;5135376;27;23806;-71
2021/06/08 12:52:00;;;;;;;9.35;3.22;;;;;;;31.14;22.96;100314.72;5133778;27;20538;-73
2021/06/08 12:54:38;;;;;;;5.30;3.20;;;;;;;31.15;22.83;100317.19;5135742;27;20069;-72
2021/06/08 12:57:22;;;;;;;5.25;3.30;;;;;;;31.30;22.97;100313.28;5135950;27;20040;-70
2021/06/08 12:59:50;;;;;;;7.53;3.28;;;;;;;31.12;22.48;100311.47;5135403;27;20035;-69
2021/06/08 13:54:35;;;;;;;6.90;3.40;;;;;;;29.02;25.25;100304.13;5130631;27;20328;-72
2021/06/08 13:57:06;;;;;;;9.50;4.22;;;;;;;28.97;25.27;100306.94;5116726;27;20046;-75
2021/06/08 14:02:43;;;;;;;5.00;3.38;;;;;;;29.56;26.22;100301.31;5130673;27;20040;-76
2021/06/08 14:05:25;;;;;;;5.13;3.53;;;;;;;29.70;25.77;100296.72;5131469;27;20060;-74
2021/06/08 14:07:51;;;;;;;5.50;3.60;;;;;;;29.71;25.70;100295.59;5130227;27;20043;-73
2021/06/08 14:10:16;;;;;;;6.10;3.78;;;;;;;29.87;26.13;100296.22;5130722;27;20063;-73
2021/06/08 14:13:04;;;;;;;5.45;3.58;;;;;;;30.03;25.68;100291.31;5112297;27;20083;-70
2021/06/08 14:15:30;;;;;;;5.03;3.38;;;;;;;29.73;25.15;100289.00;5131234;27;20458;-78
2021/06/08 14:17:56;;;;;;;10.68;3.78;;;;;;;29.44;25.49;100289.94;5129929;27;20024;-78
2021/06/08 14:20:21;;;;;;;6.80;3.30;;;;;;;29.38;25.68;100283.72;5130465;27;20024;-76
2021/06/08 14:22:47;;;;;;;5.45;4.05;;;;;;;29.46;25.83;100288.53;5130755;27;20028;-77
2021/06/08 14:25:14;;;;;;;11.95;3.72;;;;;;;29.54;25.77;100285.13;5130470;27;20067;-73
2021/06/08 14:27:40;;;;;;;4.88;3.40;;;;;;;29.37;25.68;100276.59;5129038;27;20493;-73
2021/06/08 14:30:06;;;;;;;6.80;3.15;;;;;;;29.31;25.91;100281.31;5130334;27;30320;-72
2021/06/08 14:32:31;;;;;;;7.60;3.60;;;;;;;29.43;26.25;100274.59;5129556;27;20032;-74
2021/06/08 14:34:59;;;;;;;5.20;3.50;;;;;;;29.38;25.48;100273.53;5129138;27;20034;-73
2021/06/08 14:37:25;;;;;;;5.05;3.25;;;;;;;29.14;25.73;100278.22;5130494;27;20119;-73
2021/06/08 14:39:50;;;;;;;5.72;4.00;;;;;;;29.12;25.81;100275.78;5130253;27;20028;-75
2021/06/08 14:42:15;;;;;;;8.18;3.60;;;;;;;29.14;25.87;100278.22;5128553;27;39696;-76
2021/06/08 14:44:41;;;;;;;6.13;3.70;;;;;;;29.18;25.49;100282.00;5129883;27;20028;-79
2021/06/08 14:47:06;;;;;;;5.85;3.85;;;;;;;29.13;25.39;100269.19;5130069;27;33854;-77
2021/06/08 14:49:31;;;;;;;5.90;3.13;;;;;;;29.03;25.31;100272.88;5130436;27;20028;-78
2021/06/08 14:51:57;;;;;;;4.78;3.42;;;;;;;29.06;25.64;100273.38;5130452;27;20028;-75
2021/06/08 14:54:22;;;;;;;7.38;3.45;;;;;;;29.05;26.10;100267.09;5130061;27;20056;-71
2021/06/08 14:56:48;;;;;;;4.93;3.58;;;;;;;29.13;26.09;100271.09;5130070;27;20105;-77
2021/06/08 14:59:13;;;;;;;6.63;3.60;;;;;;;29.14;26.14;100267.25;5129330;27;26095;-73
2021/06/08 15:01:38;;;;;;;5.43;3.63;;;;;;;29.01;25.83;100268.78;5130345;27;20472;-76
2021/06/08 15:04:04;;;;;;;5.85;3.50;;;;;;;28.89;25.88;100265.63;5108946;28;20385;-78
2021/06/08 15:06:29;;;;;;;5.20;3.70;;;;;;;28.81;25.68;100267.06;5116701;27;20476;-74
2021/06/08 15:08:55;;;;;;;6.38;3.28;;;;;;;28.73;25.96;100273.19;5116341;27;20355;-72
2021/06/08 15:11:21;;;;;;;7.55;5.07;;;;;;;28.72;26.02;100272.38;5116509;27;20035;-73
2021/06/08 15:13:46;;;;;;;8.32;5.00;;;;;;;28.56;25.96;100257.19;5115879;27;20821;-72
2021/06/08 15:16:12;;;;;;;4.68;3.42;;;;;;;28.36;25.79;100265.31;5115131;27;31634;-72
2021/06/08 15:18:38;;;;;;;9.40;3.55;;;;;;;28.24;26.04;100267.59;5114915;27;34466;-73
2021/06/08 15:21:04;;;;;;;8.65;3.33;;;;;;;28.17;26.02;100258.88;5115077;27;20558;-72
2021/06/08 15:23:29;;;;;;;9.20;3.88;;;;;;;28.15;26.19;100258.34;5098179;27;20037;-73
2021/06/08 15:25:55;;;;;;;6.07;3.00;;;;;;;28.17;26.63;100258.88;5098000;27;20028;-69
2021/06/08 15:28:23;;;;;;;5.28;3.30;;;;;;;28.19;26.38;100256.69;5097249;28;20078;-69
2021/06/08 15:30:49;;;;;;;5.90;3.08;;;;;;;28.19;26.29;100253.94;5096677;28;20029;-70
2021/06/08 15:33:15;;;;;;;5.55;3.00;;;;;;;28.09;26.36;100259.50;5078479;28;20037;-69
2021/06/08 15:35:40;;;;;;;6.32;3.03;;;;;;;28.03;26.24;100250.50;5096624;28;20083;-72
2021/06/08 15:38:06;;;;;;;11.23;3.53;;;;;;;28.00;26.32;100253.81;5095416;28;20481;-73
2021/06/08 15:40:31;;;;;;;5.30;3.65;;;;;;;27.93;26.34;100256.84;5094343;28;35905;-73
2021/06/08 15:42:57;;;;;;;3.88;2.88;;;;;;;27.87;26.63;100257.97;5096840;28;20033;-72
2021/06/08 15:45:22;;;;;;;3.90;2.88;;;;;;;27.80;26.43;100243.81;5096336;28;20031;-73
2021/06/08 15:47:47;;;;;;;7.68;3.05;;;;;;;27.67;26.18;100248.00;5077812;28;20027;-72
2021/06/08 15:50:13;;;;;;;5.18;2.63;;;;;;;27.61;26.31;100246.38;5096732;28;20435;-73
2021/06/08 15:52:38;;;;;;;7.32;3.00;;;;;;;27.58;26.45;100246.97;5095295;28;28903;-72
2021/06/08 15:55:04;;;;;;;4.38;2.80;;;;;;;27.51;26.26;100239.06;5096824;28;20051;-71
2021/06/08 15:57:30;;;;;;;5.57;2.90;;;;;;;27.43;26.31;100247.84;5077588;28;20476;-68
2021/06/08 15:59:55;;;;;;;4.03;2.92;;;;;;;27.40;26.48;100242.97;5111018;28;20074;-72
2021/06/08 16:02:22;;;;;;;4.18;2.70;;;;;;;27.36;26.21;100248.97;5110279;28;39431;-69
2021/06/08 16:04:47;;;;;;;4.57;2.55;;;;;;;27.36;26.25;100239.97;5095900;28;20083;-69
2021/06/08 16:07:12;;;;;;;4.97;2.50;;;;;;;27.33;26.17;100241.31;5095205;28;35708;-70
2021/06/08 16:09:38;;;;;;;4.55;2.60;;;;;;;27.30;26.38;100239.16;5096114;28;20037;-72
2021/06/08 16:12:04;;;;;;;3.70;2.50;;;;;;;27.27;26.13;100236.97;5096159;28;20028;-72
2021/06/08 16:14:29;;;;;;;4.38;2.42;;;;;;;27.22;26.05;100231.53;5096144;28;20833;-72
2021/06/08 16:16:55;;;;;;;7.05;3.00;;;;;;;27.13;25.99;100238.66;5094756;28;21909;-71
2021/06/08 16:19:20;;;;;;;8.13;2.47;;;;;;;27.05;26.08;100237.34;5094593;28;20025;-69
2021/06/08 16:21:46;;;;;;;3.58;2.67;;;;;;;27.01;26.36;100237.09;5095489;28;25398;-68
2021/06/08 16:24:12;;;;;;;6.82;2.88;;;;;;;26.97;26.20;100230.53;5095724;28;20070;-68
2021/06/08 16:26:37;;;;;;;5.53;2.90;;;;;;;26.95;26.30;100227.25;5095567;28;20032;-73
2021/06/08 16:29:04;;;;;;;3.45;2.63;;;;;;;26.92;26.20;100227.81;5094501;28;20036;-73
2021/06/08 16:31:29;;;;;;;3.35;2.67;;;;;;;26.88;26.20;100221.28;5095818;28;20051;-74
2021/06/08 16:33:54;;;;;;;7.97;3.20;;;;;;;26.84;26.36;100220.19;5094212;28;20077;-73
2021/06/08 16:36:20;;;;;;;6.32;3.25;;;;;;;26.81;26.22;100220.75;5095255;28;39117;-73
2021/06/08 16:38:45;;;;;;;4.85;2.60;;;;;;;26.75;26.43;100216.38;5094419;28;20444;-74
2021/06/08 16:41:11;;;;;;;5.72;2.70;;;;;;;26.71;26.43;100220.78;5095493;28;24971;-73
2021/06/08 16:43:36;;;;;;;2.80;2.38;;;;;;;26.68;26.59;100222.94;5095581;28;20035;-72
2021/06/08 16:46:02;;;;;;;3.78;2.33;;;;;;;26.61;26.30;100216.94;5095918;28;20047;-71
2021/06/08 16:48:29;;;;;;;3.47;2.30;;;;;;;26.52;26.29;100219.44;5095329;28;27708;-75
2021/06/08 16:53:29;;;;;;;6.05;2.20;;;;;;;26.38;26.50;100212.06;5094200;28;20056;-73
2021/06/08 16:55:54;;;;;;;6.30;2.47;;;;;;;26.32;26.55;100219.47;5095461;28;20025;-72
2021/06/08 16:58:20;;;;;;;4.05;2.45;;;;;;;26.24;26.66;100218.09;5093257;28;41818;-75
2021/06/08 17:00:45;;;;;;;9.30;2.38;;;;;;;26.17;26.46;100218.38;5076992;28;20031;-74
2021/06/08 17:03:11;;;;;;;6.63;2.75;;;;;;;26.11;26.64;100210.47;5094399;28;20135;-75